sensor_id;sensor_type;location;lat;lon;timestamp;P1;durP1;ratioP1;P2;durP2;ratioP2
79369;SDS011;68835;53.096;17.932;2023-07-08T00:01:14;8.30;;;5.20;;
79369;SDS011;68835;53.096;17.932;2023-07-08T00:03:46;10.10;;;5.80;;
79369;SDS011;68835;53.096;17.932;2023-07-08T00:06:17;15.40;;;5.90;;
79369;SDS011;68835;53.096;17.932;2023-07-08T00:08:49;23.00;;;7.30;;
79369;SDS011;68835;53.096;17.932;2023-07-08T00:11:16;10.80;;;6.10;;
79369;SDS011;68835;53.096;17.932;2023-07-08T00:13:43;10.50;;;4.70;;
79369;SDS011;68835;53.096;17.932;2023-07-08T00:16:11;8.70;;;4.90;;
79369;SDS011;68835;53.096;17.932;2023-07-08T00:18:40;9.00;;;5.20;;
79369;SDS011;68835;53.096;17.932;2023-07-08T00:21:13;10.00;;;5.50;;
79369;SDS011;68835;53.096;17.932;2023-07-08T00:23:45;6.80;;;4.30;;
79369;SDS011;68835;53.096;17.932;2023-07-08T00:26:25;9.00;;;5.00;;
79369;SDS011;68835;53.096;17.932;2023-07-08T00:28:54;8.90;;;5.60;;
79369;SDS011;68835;53.096;17.932;2023-07-08T00:33:50;9.00;;;4.90;;
79369;SDS011;68835;53.096;17.932;2023-07-08T00:36:18;9.70;;;5.90;;
79369;SDS011;68835;53.096;17.932;2023-07-08T00:38:45;11.90;;;5.80;;
79369;SDS011;68835;53.096;17.932;2023-07-08T00:41:28;8.40;;;4.90;;
79369;SDS011;68835;53.096;17.932;2023-07-08T00:44:01;10.60;;;4.90;;
79369;SDS011;68835;53.096;17.932;2023-07-08T00:51:34;9.20;;;4.80;;
79369;SDS011;68835;53.096;17.932;2023-07-08T00:54:15;13.50;;;6.10;;
79369;SDS011;68835;53.096;17.932;2023-07-08T00:59:29;10.80;;;5.50;;
79369;SDS011;68835;53.096;17.932;2023-07-08T01:02:03;8.40;;;5.40;;
79369;SDS011;68835;53.096;17.932;2023-07-08T01:04:34;14.30;;;5.70;;
79369;SDS011;68835;53.096;17.932;2023-07-08T01:07:10;9.50;;;5.50;;
79369;SDS011;68835;53.096;17.932;2023-07-08T01:09:39;15.30;;;5.20;;
79369;SDS011;68835;53.096;17.932;2023-07-08T01:12:13;9.70;;;5.30;;
79369;SDS011;68835;53.096;17.932;2023-07-08T01:14:44;12.50;;;5.90;;
79369;SDS011;68835;53.096;17.932;2023-07-08T01:17:13;10.70;;;5.60;;
79369;SDS011;68835;53.096;17.932;2023-07-08T01:19:41;10.70;;;6.30;;
79369;SDS011;68835;53.096;17.932;2023-07-08T01:22:09;12.90;;;6.10;;
79369;SDS011;68835;53.096;17.932;2023-07-08T01:24:38;9.50;;;5.70;;
79369;SDS011;68835;53.096;17.932;2023-07-08T01:27:10;11.60;;;5.70;;
79369;SDS011;68835;53.096;17.932;2023-07-08T01:29:39;11.60;;;6.60;;
79369;SDS011;68835;53.096;17.932;2023-07-08T01:32:09;13.50;;;6.80;;
79369;SDS011;68835;53.096;17.932;2023-07-08T01:34:44;11.50;;;7.10;;
79369;SDS011;68835;53.096;17.932;2023-07-08T01:42:52;11.20;;;6.30;;
79369;SDS011;68835;53.096;17.932;2023-07-08T01:48:10;11.90;;;6.30;;
79369;SDS011;68835;53.096;17.932;2023-07-08T01:50:42;15.30;;;7.10;;
79369;SDS011;68835;53.096;17.932;2023-07-08T01:53:17;12.10;;;6.80;;
79369;SDS011;68835;53.096;17.932;2023-07-08T01:55:47;9.60;;;6.40;;
79369;SDS011;68835;53.096;17.932;2023-07-08T01:58:14;11.90;;;7.10;;
79369;SDS011;68835;53.096;17.932;2023-07-08T02:00:40;11.50;;;6.00;;
79369;SDS011;68835;53.096;17.932;2023-07-08T02:03:08;16.20;;;7.20;;
79369;SDS011;68835;53.096;17.932;2023-07-08T02:05:36;13.10;;;6.90;;
79369;SDS011;68835;53.096;17.932;2023-07-08T02:08:02;16.40;;;7.80;;
79369;SDS011;68835;53.096;17.932;2023-07-08T02:10:29;12.10;;;7.00;;
79369;SDS011;68835;53.096;17.932;2023-07-08T02:12:55;11.50;;;7.00;;
79369;SDS011;68835;53.096;17.932;2023-07-08T02:15:22;13.00;;;7.10;;
79369;SDS011;68835;53.096;17.932;2023-07-08T02:17:48;14.00;;;7.10;;
79369;SDS011;68835;53.096;17.932;2023-07-08T02:20:16;13.90;;;7.00;;
79369;SDS011;68835;53.096;17.932;2023-07-08T02:22:42;17.80;;;7.70;;
79369;SDS011;68835;53.096;17.932;2023-07-08T02:25:09;12.40;;;6.70;;
79369;SDS011;68835;53.096;17.932;2023-07-08T02:27:36;11.70;;;6.80;;
79369;SDS011;68835;53.096;17.932;2023-07-08T02:30:04;14.40;;;7.50;;
79369;SDS011;68835;53.096;17.932;2023-07-08T02:32:32;14.40;;;7.40;;
79369;SDS011;68835;53.096;17.932;2023-07-08T02:35:06;11.20;;;6.90;;
79369;SDS011;68835;53.096;17.932;2023-07-08T02:37:34;12.50;;;7.20;;
79369;SDS011;68835;53.096;17.932;2023-07-08T02:40:01;10.50;;;6.20;;
79369;SDS011;68835;53.096;17.932;2023-07-08T02:42:29;12.40;;;7.60;;
79369;SDS011;68835;53.096;17.932;2023-07-08T02:44:56;14.60;;;7.70;;
79369;SDS011;68835;53.096;17.932;2023-07-08T02:47:22;15.10;;;7.30;;
79369;SDS011;68835;53.096;17.932;2023-07-08T02:49:49;15.80;;;7.70;;
79369;SDS011;68835;53.096;17.932;2023-07-08T02:52:17;12.40;;;7.40;;
79369;SDS011;68835;53.096;17.932;2023-07-08T02:54:44;13.80;;;7.10;;
79369;SDS011;68835;53.096;17.932;2023-07-08T02:57:10;13.50;;;7.60;;
79369;SDS011;68835;53.096;17.932;2023-07-08T02:59:37;16.20;;;7.50;;
79369;SDS011;68835;53.096;17.932;2023-07-08T03:02:04;13.30;;;7.00;;
79369;SDS011;68835;53.096;17.932;2023-07-08T03:04:30;13.40;;;7.00;;
79369;SDS011;68835;53.096;17.932;2023-07-08T03:06:57;14.30;;;7.70;;
79369;SDS011;68835;53.096;17.932;2023-07-08T03:09:23;14.00;;;7.60;;
79369;SDS011;68835;53.096;17.932;2023-07-08T03:11:50;17.70;;;8.60;;
79369;SDS011;68835;53.096;17.932;2023-07-08T03:14:17;21.10;;;8.30;;
79369;SDS011;68835;53.096;17.932;2023-07-08T03:16:43;16.90;;;8.30;;
79369;SDS011;68835;53.096;17.932;2023-07-08T03:19:11;13.80;;;7.70;;
79369;SDS011;68835;53.096;17.932;2023-07-08T03:21:41;13.30;;;7.90;;
79369;SDS011;68835;53.096;17.932;2023-07-08T03:24:09;12.80;;;8.20;;
79369;SDS011;68835;53.096;17.932;2023-07-08T03:26:42;12.60;;;8.00;;
79369;SDS011;68835;53.096;17.932;2023-07-08T03:29:14;15.50;;;9.00;;
79369;SDS011;68835;53.096;17.932;2023-07-08T03:31:42;14.00;;;7.90;;
79369;SDS011;68835;53.096;17.932;2023-07-08T03:34:10;19.70;;;8.40;;
79369;SDS011;68835;53.096;17.932;2023-07-08T03:36:45;13.80;;;7.40;;
79369;SDS011;68835;53.096;17.932;2023-07-08T03:39:20;13.70;;;8.40;;
79369;SDS011;68835;53.096;17.932;2023-07-08T03:41:49;19.50;;;9.00;;
79369;SDS011;68835;53.096;17.932;2023-07-08T03:44:16;16.90;;;8.50;;
79369;SDS011;68835;53.096;17.932;2023-07-08T03:46:44;14.60;;;8.90;;
79369;SDS011;68835;53.096;17.932;2023-07-08T03:49:14;14.20;;;8.50;;
79369;SDS011;68835;53.096;17.932;2023-07-08T03:51:40;14.10;;;8.10;;
79369;SDS011;68835;53.096;17.932;2023-07-08T03:54:11;16.50;;;7.80;;
79369;SDS011;68835;53.096;17.932;2023-07-08T03:56:39;15.00;;;8.00;;
79369;SDS011;68835;53.096;17.932;2023-07-08T03:59:07;17.30;;;8.00;;
79369;SDS011;68835;53.096;17.932;2023-07-08T04:01:34;15.30;;;8.90;;
79369;SDS011;68835;53.096;17.932;2023-07-08T04:04:02;19.30;;;8.00;;
79369;SDS011;68835;53.096;17.932;2023-07-08T04:06:28;13.90;;;8.30;;
79369;SDS011;68835;53.096;17.932;2023-07-08T04:08:55;14.40;;;8.70;;
79369;SDS011;68835;53.096;17.932;2023-07-08T04:11:22;15.30;;;9.20;;
79369;SDS011;68835;53.096;17.932;2023-07-08T04:13:50;14.60;;;7.90;;
79369;SDS011;68835;53.096;17.932;2023-07-08T04:16:18;14.80;;;8.30;;
79369;SDS011;68835;53.096;17.932;2023-07-08T04:18:56;16.40;;;8.30;;
79369;SDS011;68835;53.096;17.932;2023-07-08T04:21:23;14.90;;;9.00;;
79369;SDS011;68835;53.096;17.932;2023-07-08T04:23:51;13.40;;;7.90;;
79369;SDS011;68835;53.096;17.932;2023-07-08T04:26:17;19.20;;;9.00;;
79369;SDS011;68835;53.096;17.932;2023-07-08T04:28:45;12.10;;;7.70;;
79369;SDS011;68835;53.096;17.932;2023-07-08T04:31:12;18.40;;;8.90;;
79369;SDS011;68835;53.096;17.932;2023-07-08T04:33:38;14.00;;;8.30;;
79369;SDS011;68835;53.096;17.932;2023-07-08T04:36:08;17.60;;;8.10;;
79369;SDS011;68835;53.096;17.932;2023-07-08T04:41:07;17.40;;;9.20;;
79369;SDS011;68835;53.096;17.932;2023-07-08T04:43:34;20.30;;;10.40;;
79369;SDS011;68835;53.096;17.932;2023-07-08T04:46:00;20.40;;;11.40;;
79369;SDS011;68835;53.096;17.932;2023-07-08T04:48:27;22.30;;;10.80;;
79369;SDS011;68835;53.096;17.932;2023-07-08T04:50:54;25.80;;;12.20;;
79369;SDS011;68835;53.096;17.932;2023-07-08T04:53:21;37.50;;;15.80;;
79369;SDS011;68835;53.096;17.932;2023-07-08T04:55:51;44.70;;;19.30;;
79369;SDS011;68835;53.096;17.932;2023-07-08T04:58:20;39.50;;;16.70;;
79369;SDS011;68835;53.096;17.932;2023-07-08T05:00:47;26.20;;;13.70;;
79369;SDS011;68835;53.096;17.932;2023-07-08T05:03:14;23.70;;;11.60;;
79369;SDS011;68835;53.096;17.932;2023-07-08T05:05:40;19.00;;;9.60;;
79369;SDS011;68835;53.096;17.932;2023-07-08T05:08:07;16.40;;;8.10;;
79369;SDS011;68835;53.096;17.932;2023-07-08T05:10:34;16.30;;;9.70;;
79369;SDS011;68835;53.096;17.932;2023-07-08T05:13:01;17.40;;;9.20;;
79369;SDS011;68835;53.096;17.932;2023-07-08T05:15:28;18.30;;;8.90;;
79369;SDS011;68835;53.096;17.932;2023-07-08T05:17:55;20.10;;;9.50;;
79369;SDS011;68835;53.096;17.932;2023-07-08T05:20:21;21.10;;;10.30;;
79369;SDS011;68835;53.096;17.932;2023-07-08T05:22:48;17.60;;;9.80;;
79369;SDS011;68835;53.096;17.932;2023-07-08T05:25:15;18.70;;;8.70;;
79369;SDS011;68835;53.096;17.932;2023-07-08T05:27:43;17.30;;;9.90;;
79369;SDS011;68835;53.096;17.932;2023-07-08T05:30:12;23.80;;;11.50;;
79369;SDS011;68835;53.096;17.932;2023-07-08T05:32:41;18.80;;;10.40;;
79369;SDS011;68835;53.096;17.932;2023-07-08T05:37:35;16.20;;;8.00;;
79369;SDS011;68835;53.096;17.932;2023-07-08T05:40:02;18.00;;;9.10;;
79369;SDS011;68835;53.096;17.932;2023-07-08T05:42:30;11.00;;;6.30;;
79369;SDS011;68835;53.096;17.932;2023-07-08T05:44:57;21.80;;;9.00;;
79369;SDS011;68835;53.096;17.932;2023-07-08T05:47:23;15.40;;;8.10;;
79369;SDS011;68835;53.096;17.932;2023-07-08T05:49:50;18.40;;;9.30;;
79369;SDS011;68835;53.096;17.932;2023-07-08T05:52:17;19.80;;;8.80;;
79369;SDS011;68835;53.096;17.932;2023-07-08T05:54:43;15.30;;;9.20;;
79369;SDS011;68835;53.096;17.932;2023-07-08T05:57:10;15.60;;;9.00;;
79369;SDS011;68835;53.096;17.932;2023-07-08T05:59:37;18.60;;;9.90;;
79369;SDS011;68835;53.096;17.932;2023-07-08T06:02:10;17.20;;;8.90;;
79369;SDS011;68835;53.096;17.932;2023-07-08T06:04:38;15.00;;;8.20;;
79369;SDS011;68835;53.096;17.932;2023-07-08T06:07:06;13.60;;;6.60;;
79369;SDS011;68835;53.096;17.932;2023-07-08T06:09:33;16.70;;;7.90;;
79369;SDS011;68835;53.096;17.932;2023-07-08T06:11:59;9.10;;;5.30;;
79369;SDS011;68835;53.096;17.932;2023-07-08T06:14:31;12.70;;;7.10;;
79369;SDS011;68835;53.096;17.932;2023-07-08T06:16:58;10.90;;;7.70;;
79369;SDS011;68835;53.096;17.932;2023-07-08T06:19:25;14.10;;;7.30;;
79369;SDS011;68835;53.096;17.932;2023-07-08T06:21:51;11.20;;;6.00;;
79369;SDS011;68835;53.096;17.932;2023-07-08T06:24:18;11.10;;;6.80;;
79369;SDS011;68835;53.096;17.932;2023-07-08T06:26:44;9.20;;;5.40;;
79369;SDS011;68835;53.096;17.932;2023-07-08T06:29:11;10.60;;;6.80;;
79369;SDS011;68835;53.096;17.932;2023-07-08T06:31:37;9.20;;;4.70;;
79369;SDS011;68835;53.096;17.932;2023-07-08T06:34:04;10.60;;;7.10;;
79369;SDS011;68835;53.096;17.932;2023-07-08T06:36:30;15.30;;;8.30;;
79369;SDS011;68835;53.096;17.932;2023-07-08T06:38:57;9.00;;;5.10;;
79369;SDS011;68835;53.096;17.932;2023-07-08T06:41:24;10.70;;;6.30;;
79369;SDS011;68835;53.096;17.932;2023-07-08T06:43:50;7.50;;;4.30;;
79369;SDS011;68835;53.096;17.932;2023-07-08T06:48:45;11.90;;;6.90;;
79369;SDS011;68835;53.096;17.932;2023-07-08T06:51:11;8.90;;;6.00;;
79369;SDS011;68835;53.096;17.932;2023-07-08T06:53:38;10.50;;;6.50;;
79369;SDS011;68835;53.096;17.932;2023-07-08T06:56:04;8.00;;;4.60;;
79369;SDS011;68835;53.096;17.932;2023-07-08T06:58:30;7.20;;;4.00;;
79369;SDS011;68835;53.096;17.932;2023-07-08T07:00:57;10.50;;;6.30;;
79369;SDS011;68835;53.096;17.932;2023-07-08T07:03:23;12.00;;;7.10;;
79369;SDS011;68835;53.096;17.932;2023-07-08T07:05:50;8.10;;;5.60;;
79369;SDS011;68835;53.096;17.932;2023-07-08T07:08:17;10.50;;;7.10;;
79369;SDS011;68835;53.096;17.932;2023-07-08T07:10:43;7.70;;;4.20;;
79369;SDS011;68835;53.096;17.932;2023-07-08T07:13:10;10.70;;;6.60;;
79369;SDS011;68835;53.096;17.932;2023-07-08T07:15:36;9.00;;;5.90;;
79369;SDS011;68835;53.096;17.932;2023-07-08T07:18:03;7.60;;;5.00;;
79369;SDS011;68835;53.096;17.932;2023-07-08T07:20:30;8.30;;;5.10;;
79369;SDS011;68835;53.096;17.932;2023-07-08T07:22:57;10.80;;;6.40;;
79369;SDS011;68835;53.096;17.932;2023-07-08T07:25:23;7.90;;;5.00;;
79369;SDS011;68835;53.096;17.932;2023-07-08T07:27:50;7.30;;;5.00;;
79369;SDS011;68835;53.096;17.932;2023-07-08T07:30:16;5.10;;;3.30;;
79369;SDS011;68835;53.096;17.932;2023-07-08T07:32:43;7.20;;;3.00;;
79369;SDS011;68835;53.096;17.932;2023-07-08T07:35:11;5.70;;;3.80;;
79369;SDS011;68835;53.096;17.932;2023-07-08T07:37:39;5.90;;;3.80;;
79369;SDS011;68835;53.096;17.932;2023-07-08T07:40:11;8.90;;;3.90;;
79369;SDS011;68835;53.096;17.932;2023-07-08T07:45:08;5.90;;;3.10;;
79369;SDS011;68835;53.096;17.932;2023-07-08T07:47:36;5.90;;;4.10;;
79369;SDS011;68835;53.096;17.932;2023-07-08T07:50:03;7.00;;;3.90;;
79369;SDS011;68835;53.096;17.932;2023-07-08T07:52:31;8.60;;;4.10;;
79369;SDS011;68835;53.096;17.932;2023-07-08T07:54:58;7.30;;;5.20;;
79369;SDS011;68835;53.096;17.932;2023-07-08T07:57:24;6.40;;;3.60;;
79369;SDS011;68835;53.096;17.932;2023-07-08T07:59:51;6.90;;;4.30;;
79369;SDS011;68835;53.096;17.932;2023-07-08T08:02:18;6.90;;;3.60;;
79369;SDS011;68835;53.096;17.932;2023-07-08T08:04:45;5.00;;;3.80;;
79369;SDS011;68835;53.096;17.932;2023-07-08T08:07:12;6.70;;;3.30;;
79369;SDS011;68835;53.096;17.932;2023-07-08T08:14:33;13.10;;;4.30;;
79369;SDS011;68835;53.096;17.932;2023-07-08T08:17:00;7.40;;;4.90;;
79369;SDS011;68835;53.096;17.932;2023-07-08T08:21:53;7.50;;;3.50;;
79369;SDS011;68835;53.096;17.932;2023-07-08T08:24:19;7.00;;;4.70;;
79369;SDS011;68835;53.096;17.932;2023-07-08T08:26:46;6.80;;;4.70;;
79369;SDS011;68835;53.096;17.932;2023-07-08T08:31:39;6.20;;;4.20;;
79369;SDS011;68835;53.096;17.932;2023-07-08T08:34:06;6.00;;;4.70;;
79369;SDS011;68835;53.096;17.932;2023-07-08T08:36:33;7.30;;;4.70;;
79369;SDS011;68835;53.096;17.932;2023-07-08T08:41:29;6.10;;;4.10;;
79369;SDS011;68835;53.096;17.932;2023-07-08T08:43:58;6.60;;;3.20;;
79369;SDS011;68835;53.096;17.932;2023-07-08T08:51:38;6.40;;;4.90;;
79369;SDS011;68835;53.096;17.932;2023-07-08T08:54:06;6.70;;;3.70;;
79369;SDS011;68835;53.096;17.932;2023-07-08T08:57:00;8.90;;;5.00;;
79369;SDS011;68835;53.096;17.932;2023-07-08T08:59:53;6.70;;;3.60;;
79369;SDS011;68835;53.096;17.932;2023-07-08T09:02:25;4.10;;;2.90;;
79369;SDS011;68835;53.096;17.932;2023-07-08T09:04:53;5.00;;;3.60;;
79369;SDS011;68835;53.096;17.932;2023-07-08T09:07:22;5.00;;;3.70;;
79369;SDS011;68835;53.096;17.932;2023-07-08T09:09:51;6.60;;;3.60;;
79369;SDS011;68835;53.096;17.932;2023-07-08T09:12:40;7.80;;;4.40;;
79369;SDS011;68835;53.096;17.932;2023-07-08T09:17:41;4.40;;;2.50;;
79369;SDS011;68835;53.096;17.932;2023-07-08T09:20:20;4.20;;;3.30;;
79369;SDS011;68835;53.096;17.932;2023-07-08T09:23:17;6.20;;;3.70;;
79369;SDS011;68835;53.096;17.932;2023-07-08T09:28:44;4.40;;;3.10;;
79369;SDS011;68835;53.096;17.932;2023-07-08T09:31:20;5.10;;;3.20;;
79369;SDS011;68835;53.096;17.932;2023-07-08T09:34:10;7.10;;;4.60;;
79369;SDS011;68835;53.096;17.932;2023-07-08T09:36:49;6.10;;;3.20;;
79369;SDS011;68835;53.096;17.932;2023-07-08T09:39:19;4.40;;;3.20;;
79369;SDS011;68835;53.096;17.932;2023-07-08T09:41:48;4.40;;;3.50;;
79369;SDS011;68835;53.096;17.932;2023-07-08T09:44:17;5.10;;;3.60;;
79369;SDS011;68835;53.096;17.932;2023-07-08T09:46:56;6.50;;;2.70;;
79369;SDS011;68835;53.096;17.932;2023-07-08T09:51:57;3.60;;;2.70;;
79369;SDS011;68835;53.096;17.932;2023-07-08T09:54:25;3.70;;;2.60;;
79369;SDS011;68835;53.096;17.932;2023-07-08T09:59:32;7.40;;;4.40;;
79369;SDS011;68835;53.096;17.932;2023-07-08T10:02:23;3.30;;;2.50;;
79369;SDS011;68835;53.096;17.932;2023-07-08T10:04:54;5.00;;;2.80;;
79369;SDS011;68835;53.096;17.932;2023-07-08T10:07:23;5.70;;;2.90;;
79369;SDS011;68835;53.096;17.932;2023-07-08T10:09:50;3.80;;;2.10;;
79369;SDS011;68835;53.096;17.932;2023-07-08T10:12:22;4.80;;;2.80;;
79369;SDS011;68835;53.096;17.932;2023-07-08T10:14:51;4.40;;;3.10;;
79369;SDS011;68835;53.096;17.932;2023-07-08T10:17:22;4.90;;;3.50;;
79369;SDS011;68835;53.096;17.932;2023-07-08T10:19:49;4.50;;;2.50;;
79369;SDS011;68835;53.096;17.932;2023-07-08T10:22:22;4.00;;;3.00;;
79369;SDS011;68835;53.096;17.932;2023-07-08T10:28:08;3.00;;;2.40;;
79369;SDS011;68835;53.096;17.932;2023-07-08T10:45:13;7.40;;;4.30;;
79369;SDS011;68835;53.096;17.932;2023-07-08T10:47:51;7.80;;;4.00;;
79369;SDS011;68835;53.096;17.932;2023-07-08T10:50:43;8.00;;;3.90;;
79369;SDS011;68835;53.096;17.932;2023-07-08T10:57:15;8.90;;;4.20;;
79369;SDS011;68835;53.096;17.932;2023-07-08T11:10:58;4.70;;;2.90;;
79369;SDS011;68835;53.096;17.932;2023-07-08T11:13:29;6.60;;;3.90;;
79369;SDS011;68835;53.096;17.932;2023-07-08T11:16:02;5.20;;;2.70;;
79369;SDS011;68835;53.096;17.932;2023-07-08T11:21:16;5.10;;;3.10;;
79369;SDS011;68835;53.096;17.932;2023-07-08T11:23:50;3.50;;;2.20;;
79369;SDS011;68835;53.096;17.932;2023-07-08T11:29:26;5.50;;;3.50;;
79369;SDS011;68835;53.096;17.932;2023-07-08T11:32:02;6.80;;;3.30;;
79369;SDS011;68835;53.096;17.932;2023-07-08T11:34:32;13.40;;;5.70;;
79369;SDS011;68835;53.096;17.932;2023-07-08T11:37:01;4.60;;;3.80;;
79369;SDS011;68835;53.096;17.932;2023-07-08T11:39:33;5.30;;;3.70;;
79369;SDS011;68835;53.096;17.932;2023-07-08T11:44:43;4.70;;;2.80;;
79369;SDS011;68835;53.096;17.932;2023-07-08T11:47:15;5.20;;;2.50;;
79369;SDS011;68835;53.096;17.932;2023-07-08T11:49:46;3.90;;;2.50;;
79369;SDS011;68835;53.096;17.932;2023-07-08T11:52:19;5.40;;;4.00;;
79369;SDS011;68835;53.096;17.932;2023-07-08T11:54:55;9.40;;;3.30;;
79369;SDS011;68835;53.096;17.932;2023-07-08T11:57:37;38.30;;;18.60;;
79369;SDS011;68835;53.096;17.932;2023-07-08T12:00:13;23.00;;;12.90;;
79369;SDS011;68835;53.096;17.932;2023-07-08T12:02:53;14.20;;;8.30;;
79369;SDS011;68835;53.096;17.932;2023-07-08T12:05:31;8.80;;;5.90;;
79369;SDS011;68835;53.096;17.932;2023-07-08T12:08:02;6.40;;;4.40;;
79369;SDS011;68835;53.096;17.932;2023-07-08T12:10:39;5.00;;;2.90;;
79369;SDS011;68835;53.096;17.932;2023-07-08T12:13:16;6.70;;;4.20;;
79369;SDS011;68835;53.096;17.932;2023-07-08T12:20:52;7.90;;;4.50;;
79369;SDS011;68835;53.096;17.932;2023-07-08T12:23:25;4.60;;;3.20;;
79369;SDS011;68835;53.096;17.932;2023-07-08T12:25:52;8.80;;;5.50;;
79369;SDS011;68835;53.096;17.932;2023-07-08T12:28:20;8.30;;;5.50;;
79369;SDS011;68835;53.096;17.932;2023-07-08T12:30:48;8.40;;;4.60;;
79369;SDS011;68835;53.096;17.932;2023-07-08T12:33:17;4.90;;;3.10;;
79369;SDS011;68835;53.096;17.932;2023-07-08T12:35:48;7.00;;;2.90;;
79369;SDS011;68835;53.096;17.932;2023-07-08T12:40:46;7.20;;;4.30;;
79369;SDS011;68835;53.096;17.932;2023-07-08T12:43:13;7.20;;;4.30;;
79369;SDS011;68835;53.096;17.932;2023-07-08T12:45:42;6.30;;;4.30;;
79369;SDS011;68835;53.096;17.932;2023-07-08T12:48:08;5.30;;;3.80;;
79369;SDS011;68835;53.096;17.932;2023-07-08T12:50:36;6.40;;;3.80;;
79369;SDS011;68835;53.096;17.932;2023-07-08T12:53:04;6.60;;;4.80;;
79369;SDS011;68835;53.096;17.932;2023-07-08T12:55:40;8.30;;;5.90;;
79369;SDS011;68835;53.096;17.932;2023-07-08T12:58:12;7.00;;;4.00;;
79369;SDS011;68835;53.096;17.932;2023-07-08T13:00:44;7.10;;;4.40;;
79369;SDS011;68835;53.096;17.932;2023-07-08T13:03:16;5.90;;;4.10;;
79369;SDS011;68835;53.096;17.932;2023-07-08T13:05:45;8.20;;;5.00;;
79369;SDS011;68835;53.096;17.932;2023-07-08T13:08:15;16.80;;;9.80;;
79369;SDS011;68835;53.096;17.932;2023-07-08T13:10:45;12.80;;;8.50;;
79369;SDS011;68835;53.096;17.932;2023-07-08T13:13:20;12.50;;;8.40;;
79369;SDS011;68835;53.096;17.932;2023-07-08T13:15:49;10.00;;;5.80;;
79369;SDS011;68835;53.096;17.932;2023-07-08T13:18:30;5.80;;;4.10;;
79369;SDS011;68835;53.096;17.932;2023-07-08T13:20:59;7.30;;;4.20;;
79369;SDS011;68835;53.096;17.932;2023-07-08T13:23:27;7.10;;;5.30;;
79369;SDS011;68835;53.096;17.932;2023-07-08T13:25:55;5.90;;;4.30;;
79369;SDS011;68835;53.096;17.932;2023-07-08T13:28:26;5.40;;;4.40;;
79369;SDS011;68835;53.096;17.932;2023-07-08T13:30:54;7.90;;;5.50;;
79369;SDS011;68835;53.096;17.932;2023-07-08T13:33:23;16.40;;;5.10;;
79369;SDS011;68835;53.096;17.932;2023-07-08T13:35:50;7.70;;;5.00;;
79369;SDS011;68835;53.096;17.932;2023-07-08T13:38:19;7.00;;;4.90;;
79369;SDS011;68835;53.096;17.932;2023-07-08T13:40:49;5.10;;;3.90;;
79369;SDS011;68835;53.096;17.932;2023-07-08T13:43:24;10.70;;;6.30;;
79369;SDS011;68835;53.096;17.932;2023-07-08T13:45:53;5.00;;;3.30;;
79369;SDS011;68835;53.096;17.932;2023-07-08T13:48:27;5.00;;;4.00;;
79369;SDS011;68835;53.096;17.932;2023-07-08T13:51:06;6.20;;;4.70;;
79369;SDS011;68835;53.096;17.932;2023-07-08T13:53:45;6.60;;;4.70;;
79369;SDS011;68835;53.096;17.932;2023-07-08T13:56:19;9.30;;;5.30;;
79369;SDS011;68835;53.096;17.932;2023-07-08T13:58:49;7.30;;;4.40;;
79369;SDS011;68835;53.096;17.932;2023-07-08T14:01:20;7.80;;;3.80;;
79369;SDS011;68835;53.096;17.932;2023-07-08T14:03:49;6.00;;;4.70;;
79369;SDS011;68835;53.096;17.932;2023-07-08T14:06:18;6.40;;;4.80;;
79369;SDS011;68835;53.096;17.932;2023-07-08T14:08:47;5.90;;;5.00;;
79369;SDS011;68835;53.096;17.932;2023-07-08T14:11:36;6.20;;;3.60;;
79369;SDS011;68835;53.096;17.932;2023-07-08T14:14:02;5.00;;;3.60;;
79369;SDS011;68835;53.096;17.932;2023-07-08T14:16:29;8.10;;;4.50;;
79369;SDS011;68835;53.096;17.932;2023-07-08T14:18:58;9.70;;;4.90;;
79369;SDS011;68835;53.096;17.932;2023-07-08T14:21:30;5.90;;;4.10;;
79369;SDS011;68835;53.096;17.932;2023-07-08T14:23:57;6.20;;;4.50;;
79369;SDS011;68835;53.096;17.932;2023-07-08T14:26:24;6.10;;;4.80;;
79369;SDS011;68835;53.096;17.932;2023-07-08T14:28:50;6.20;;;4.20;;
79369;SDS011;68835;53.096;17.932;2023-07-08T14:31:19;5.70;;;4.10;;
79369;SDS011;68835;53.096;17.932;2023-07-08T14:33:48;6.70;;;4.60;;
79369;SDS011;68835;53.096;17.932;2023-07-08T14:36:17;8.80;;;4.20;;
79369;SDS011;68835;53.096;17.932;2023-07-08T14:38:44;7.40;;;5.00;;
79369;SDS011;68835;53.096;17.932;2023-07-08T14:41:11;6.30;;;5.00;;
79369;SDS011;68835;53.096;17.932;2023-07-08T14:43:37;6.60;;;4.80;;
79369;SDS011;68835;53.096;17.932;2023-07-08T14:46:05;6.10;;;4.70;;
79369;SDS011;68835;53.096;17.932;2023-07-08T14:48:35;6.00;;;5.40;;
79369;SDS011;68835;53.096;17.932;2023-07-08T14:51:02;5.80;;;4.50;;
79369;SDS011;68835;53.096;17.932;2023-07-08T14:53:29;5.10;;;4.50;;
79369;SDS011;68835;53.096;17.932;2023-07-08T14:55:56;4.80;;;3.20;;
79369;SDS011;68835;53.096;17.932;2023-07-08T14:58:26;6.40;;;4.50;;
79369;SDS011;68835;53.096;17.932;2023-07-08T15:00:55;5.60;;;4.20;;
79369;SDS011;68835;53.096;17.932;2023-07-08T15:03:24;5.60;;;4.30;;
79369;SDS011;68835;53.096;17.932;2023-07-08T15:05:51;5.00;;;4.40;;
79369;SDS011;68835;53.096;17.932;2023-07-08T15:08:17;7.70;;;4.40;;
79369;SDS011;68835;53.096;17.932;2023-07-08T15:10:46;5.60;;;4.20;;
79369;SDS011;68835;53.096;17.932;2023-07-08T15:13:19;5.80;;;4.30;;
79369;SDS011;68835;53.096;17.932;2023-07-08T15:15:49;6.00;;;4.30;;
79369;SDS011;68835;53.096;17.932;2023-07-08T15:18:16;11.30;;;4.40;;
79369;SDS011;68835;53.096;17.932;2023-07-08T15:20:44;5.30;;;3.80;;
79369;SDS011;68835;53.096;17.932;2023-07-08T15:23:10;5.60;;;4.50;;
79369;SDS011;68835;53.096;17.932;2023-07-08T15:25:39;8.00;;;4.50;;
79369;SDS011;68835;53.096;17.932;2023-07-08T15:28:11;11.20;;;4.80;;
79369;SDS011;68835;53.096;17.932;2023-07-08T15:30:44;7.50;;;4.80;;
79369;SDS011;68835;53.096;17.932;2023-07-08T15:33:12;7.80;;;4.40;;
79369;SDS011;68835;53.096;17.932;2023-07-08T15:35:42;5.00;;;3.30;;
79369;SDS011;68835;53.096;17.932;2023-07-08T15:38:09;7.80;;;4.30;;
79369;SDS011;68835;53.096;17.932;2023-07-08T15:40:35;6.20;;;3.20;;
79369;SDS011;68835;53.096;17.932;2023-07-08T15:43:05;6.30;;;4.20;;
79369;SDS011;68835;53.096;17.932;2023-07-08T15:45:38;5.90;;;4.30;;
79369;SDS011;68835;53.096;17.932;2023-07-08T15:48:16;5.40;;;3.10;;
79369;SDS011;68835;53.096;17.932;2023-07-08T15:50:43;4.90;;;3.80;;
79369;SDS011;68835;53.096;17.932;2023-07-08T15:53:10;6.20;;;4.00;;
79369;SDS011;68835;53.096;17.932;2023-07-08T15:55:38;7.00;;;4.70;;
79369;SDS011;68835;53.096;17.932;2023-07-08T15:58:14;7.80;;;4.90;;
79369;SDS011;68835;53.096;17.932;2023-07-08T16:00:50;4.60;;;2.80;;
79369;SDS011;68835;53.096;17.932;2023-07-08T16:03:21;8.20;;;4.60;;
79369;SDS011;68835;53.096;17.932;2023-07-08T16:05:50;7.80;;;4.30;;
79369;SDS011;68835;53.096;17.932;2023-07-08T16:08:18;6.30;;;4.60;;
79369;SDS011;68835;53.096;17.932;2023-07-08T16:10:56;5.90;;;3.60;;
79369;SDS011;68835;53.096;17.932;2023-07-08T16:13:29;5.10;;;4.30;;
79369;SDS011;68835;53.096;17.932;2023-07-08T16:15:58;5.50;;;4.70;;
79369;SDS011;68835;53.096;17.932;2023-07-08T16:18:24;9.10;;;4.20;;
79369;SDS011;68835;53.096;17.932;2023-07-08T16:20:51;5.20;;;4.20;;
79369;SDS011;68835;53.096;17.932;2023-07-08T16:23:18;6.60;;;4.20;;
79369;SDS011;68835;53.096;17.932;2023-07-08T16:25:46;10.90;;;4.50;;
79369;SDS011;68835;53.096;17.932;2023-07-08T16:28:25;6.90;;;4.40;;